Time;durP1;ratioP1;P1;durP2;ratioP2;P2;SDS_P1;SDS_P2;PMS_P1;PMS_P2;Temp;Humidity;BMP_temperature;BMP_pressure;BME280_temperature;BME280_humidity;BME280_pressure;Samples;Min_cycle;Max_cycle;Signal;HPM_P1;HPM_P2
2022/10/11 00:01:30;;;;;;;;;;;7.00;99.90;;;;;;6116201;23;19932;-61
2022/10/11 00:03:56;;;;;;;;;;;7.00;99.90;;;;;;6115289;23;19940;-61
2022/10/11 00:06:21;;;;;;;;;;;7.00;99.90;;;;;;6115995;23;19925;-62
2022/10/11 00:08:47;;;;;;;;;;;6.90;99.90;;;;;;6116310;23;19992;-62
2022/10/11 00:11:13;;;;;;;;;;;7.00;99.90;;;;;;6116834;23;20324;-63
2022/10/11 00:13:38;;;;;;;;;;;7.00;99.90;;;;;;6116493;23;20058;-62
2022/10/11 00:16:07;;;;;;;;;;;6.90;99.90;;;;;;6116686;23;19929;-61
2022/10/11 00:18:33;;;;;;;;;;;6.90;99.90;;;;;;6116529;23;19925;-65
2022/10/11 00:21:00;;;;;;;;;;;6.90;99.90;;;;;;6116828;23;19929;-64
2022/10/11 00:23:25;;;;;;;;;;;6.90;99.90;;;;;;6116652;23;19925;-61
2022/10/11 00:26:01;;;;;;;;;;;7.40;99.90;;;;;;6117364;23;20354;-62
2022/10/11 00:28:26;;;;;;;;;;;6.80;99.90;;;;;;6116256;23;20004;-61
2022/10/11 00:30:52;;;;;;;;;;;6.90;99.90;;;;;;6116909;23;19968;-62
2022/10/11 00:33:18;;;;;;;;;;;6.90;99.90;;;;;;6117046;23;19925;-61
2022/10/11 00:35:43;;;;;;;;;;;7.00;99.90;;;;;;6116511;23;20366;-61
2022/10/11 00:38:09;;;;;;;;;;;7.00;99.90;;;;;;6116499;23;20352;-60
2022/10/11 00:40:35;;;;;;;;;;;6.90;99.90;;;;;;6116724;23;19925;-61
2022/10/11 00:43:01;;;;;;;;;;;6.80;99.90;;;;;;6116695;23;20012;-61
2022/10/11 00:45:26;;;;;;;;;;;6.80;99.90;;;;;;6116804;23;19932;-61
2022/10/11 00:47:57;;;;;;;;;;;6.80;99.90;;;;;;6116345;23;19925;-61
2022/10/11 00:50:22;;;;;;;;;;;6.70;99.90;;;;;;6116452;23;19924;-61
2022/10/11 00:52:59;;;;;;;;;;;6.70;99.90;;;;;;6116793;23;19999;-61
2022/10/11 00:55:27;;;;;;;;;;;6.70;99.90;;;;;;6116482;23;19932;-61
2022/10/11 00:57:54;;;;;;;;;;;6.70;99.90;;;;;;6116357;23;19925;-62
2022/10/11 01:00:20;;;;;;;;;;;6.70;99.90;;;;;;6116476;23;20368;-61
2022/10/11 01:02:45;;;;;;;;;;;6.60;99.90;;;;;;6116696;23;19954;-62
2022/10/11 01:05:13;;;;;;;;;;;6.60;99.90;;;;;;6116448;23;19998;-62
2022/10/11 01:07:39;;;;;;;;;;;6.60;99.90;;;;;;6116946;23;19932;-62
2022/10/11 01:10:04;;;;;;;;;;;6.60;99.90;;;;;;6115771;23;19952;-63
2022/10/11 01:12:30;;;;;;;;;;;6.60;99.90;;;;;;6115453;23;20095;-61
2022/10/11 01:15:01;;;;;;;;;;;6.60;99.90;;;;;;6115917;23;19925;-62
2022/10/11 01:17:34;;;;;;;;;;;6.60;99.90;;;;;;6116520;23;19929;-62
2022/10/11 01:20:25;;;;;;;;;;;6.60;99.90;;;;;;6116783;23;19931;-61
2022/10/11 01:23:10;;;;;;;;;;;6.50;99.90;;;;;;6116418;23;19925;-61
2022/10/11 01:25:54;;;;;;;;;;;6.50;99.90;;;;;;6116240;23;19925;-61
2022/10/11 01:28:19;;;;;;;;;;;6.50;99.90;;;;;;6115642;23;20348;-61
2022/10/11 01:30:45;;;;;;;;;;;6.40;99.90;;;;;;6115677;23;19931;-60
2022/10/11 01:33:11;;;;;;;;;;;6.40;99.90;;;;;;6116562;23;19931;-61
2022/10/11 01:35:59;;;;;;;;;;;6.40;99.90;;;;;;6116379;23;20000;-60
2022/10/11 01:38:30;;;;;;;;;;;6.40;99.90;;;;;;6113541;23;20359;-61
2022/10/11 01:40:58;;;;;;;;;;;6.30;99.90;;;;;;6116316;23;19932;-61
2022/10/11 01:43:25;;;;;;;;;;;6.30;99.90;;;;;;6116066;23;19925;-61
2022/10/11 01:45:52;;;;;;;;;;;6.30;99.90;;;;;;6116054;23;19925;-60
2022/10/11 01:48:17;;;;;;;;;;;6.40;99.90;;;;;;6116000;23;19925;-61
2022/10/11 01:50:43;;;;;;;;;;;6.40;99.90;;;;;;6115579;23;19952;-61
2022/10/11 01:53:29;;;;;;;;;;;6.30;99.90;;;;;;6115594;23;19959;-62
2022/10/11 01:56:18;;;;;;;;;;;6.30;99.90;;;;;;6114663;23;19925;-63
2022/10/11 01:58:51;;;;;;;;;;;6.30;99.90;;;;;;6115325;23;20233;-62
2022/10/11 02:01:16;;;;;;;;;;;6.20;99.90;;;;;;6116312;23;19968;-63
2022/10/11 02:03:53;;;;;;;;;;;6.20;99.90;;;;;;6116225;23;19948;-62
2022/10/11 02:06:21;;;;;;;;;;;6.30;99.90;;;;;;6115265;23;20376;-62
2022/10/11 02:08:56;;;;;;;;;;;6.20;99.90;;;;;;6115991;23;19978;-62
2022/10/11 02:11:25;;;;;;;;;;;6.20;99.90;;;;;;6115834;23;20538;-62
2022/10/11 02:13:50;;;;;;;;;;;6.20;99.90;;;;;;6115555;23;20257;-61
2022/10/11 02:16:18;;;;;;;;;;;6.20;99.90;;;;;;6115653;23;19925;-62
2022/10/11 02:18:46;;;;;;;;;;;6.10;99.90;;;;;;6115843;23;19974;-61
2022/10/11 02:21:13;;;;;;;;;;;6.20;99.90;;;;;;6115620;23;20403;-62
2022/10/11 02:23:42;;;;;;;;;;;6.10;99.90;;;;;;6115596;23;20247;-61
2022/10/11 02:26:10;;;;;;;;;;;6.00;99.90;;;;;;6115721;23;20251;-62
2022/10/11 02:28:38;;;;;;;;;;;6.00;99.90;;;;;;6115410;23;19924;-62
2022/10/11 02:31:05;;;;;;;;;;;6.00;99.90;;;;;;6115999;23;20525;-64
2022/10/11 02:33:43;;;;;;;;;;;6.00;99.90;;;;;;6117275;23;19925;-62
2022/10/11 02:36:14;;;;;;;;;;;6.10;99.90;;;;;;6117395;23;20179;-62
2022/10/11 02:38:44;;;;;;;;;;;6.10;99.90;;;;;;6117046;23;19931;-61
2022/10/11 02:41:26;;;;;;;;;;;6.00;99.90;;;;;;6117410;23;19947;-62
2022/10/11 02:43:57;;;;;;;;;;;6.00;99.90;;;;;;6117381;23;19929;-62
2022/10/11 02:46:23;;;;;;;;;;;6.00;99.90;;;;;;6117045;23;20352;-61
2022/10/11 02:48:49;;;;;;;;;;;6.00;99.90;;;;;;6117332;23;19925;-62
2022/10/11 02:51:16;;;;;;;;;;;6.00;99.90;;;;;;6117305;23;20019;-64
2022/10/11 02:53:41;;;;;;;;;;;5.90;99.90;;;;;;6117282;23;19929;-62
2022/10/11 02:56:07;;;;;;;;;;;6.40;99.90;;;;;;6116865;23;20284;-63
2022/10/11 02:58:32;;;;;;;;;;;5.90;99.90;;;;;;6117195;23;20525;-62
2022/10/11 03:00:58;;;;;;;;;;;5.90;99.90;;;;;;6116881;23;19925;-62
2022/10/11 03:03:24;;;;;;;;;;;5.80;99.90;;;;;;6117062;23;19932;-64
2022/10/11 03:05:49;;;;;;;;;;;5.80;99.90;;;;;;6116514;23;20370;-61
2022/10/11 03:08:16;;;;;;;;;;;5.90;99.90;;;;;;6116352;23;20229;-61
2022/10/11 03:10:41;;;;;;;;;;;5.90;99.90;;;;;;6116900;23;19972;-60
2022/10/11 03:13:07;;;;;;;;;;;5.80;99.90;;;;;;6116984;23;19924;-61
2022/10/11 03:15:33;;;;;;;;;;;5.80;99.90;;;;;;6117244;23;19925;-63
2022/10/11 03:17:58;;;;;;;;;;;5.80;99.90;;;;;;6116777;23;19931;-61
2022/10/11 03:20:24;;;;;;;;;;;5.80;99.90;;;;;;6116767;23;20231;-62
2022/10/11 03:22:49;;;;;;;;;;;5.70;99.90;;;;;;6116942;23;20007;-61
2022/10/11 03:25:15;;;;;;;;;;;5.70;99.90;;;;;;6117010;23;20010;-61
2022/10/11 03:27:41;;;;;;;;;;;5.70;99.90;;;;;;6115909;23;20414;-61
2022/10/11 03:30:07;;;;;;;;;;;5.70;99.90;;;;;;6116049;23;19925;-61
2022/10/11 03:32:33;;;;;;;;;;;5.70;99.90;;;;;;6117043;23;19995;-61
2022/10/11 03:34:59;;;;;;;;;;;5.70;99.90;;;;;;6116515;23;19949;-60
2022/10/11 03:37:24;;;;;;;;;;;5.70;99.90;;;;;;6115946;23;19929;-61
2022/10/11 03:39:50;;;;;;;;;;;5.60;99.90;;;;;;6116935;23;19925;-61
2022/10/11 03:42:15;;;;;;;;;;;5.60;99.90;;;;;;6116428;23;20232;-62
2022/10/11 03:44:41;;;;;;;;;;;5.60;99.90;;;;;;6117071;23;20665;-62
2022/10/11 03:47:07;;;;;;;;;;;5.90;99.90;;;;;;6116745;23;19925;-62
2022/10/11 03:49:32;;;;;;;;;;;5.70;99.90;;;;;;6117064;23;19925;-62
2022/10/11 03:51:58;;;;;;;;;;;5.60;99.90;;;;;;6117485;23;19925;-62
2022/10/11 03:54:23;;;;;;;;;;;5.60;99.90;;;;;;6116630;23;19970;-62
2022/10/11 03:56:49;;;;;;;;;;;5.60;99.90;;;;;;6117032;23;20366;-62
2022/10/11 03:59:14;;;;;;;;;;;5.50;99.90;;;;;;6117161;23;19932;-62
2022/10/11 04:01:40;;;;;;;;;;;5.60;99.90;;;;;;6116841;23;19925;-61
2022/10/11 04:04:05;;;;;;;;;;;5.50;99.90;;;;;;6116526;23;20225;-64
2022/10/11 04:06:31;;;;;;;;;;;5.60;99.90;;;;;;6116174;23;20043;-62
2022/10/11 04:08:57;;;;;;;;;;;5.60;99.90;;;;;;6116711;23;19964;-62
2022/10/11 04:11:23;;;;;;;;;;;5.60;99.90;;;;;;6116533;23;19925;-64
2022/10/11 04:13:48;;;;;;;;;;;5.50;99.90;;;;;;6116754;23;19925;-64
2022/10/11 04:16:14;;;;;;;;;;;5.50;99.90;;;;;;6116798;23;20002;-61
2022/10/11 04:18:39;;;;;;;;;;;5.50;99.90;;;;;;6116563;23;19975;-61
2022/10/11 04:21:05;;;;;;;;;;;5.50;99.90;;;;;;6116187;23;20352;-61
2022/10/11 04:23:31;;;;;;;;;;;5.60;99.90;;;;;;6116921;23;19925;-61
2022/10/11 04:25:56;;;;;;;;;;;5.50;99.90;;;;;;6116285;23;20325;-61
2022/10/11 04:28:22;;;;;;;;;;;5.50;99.90;;;;;;6116770;23;19940;-60
2022/10/11 04:30:48;;;;;;;;;;;5.50;99.90;;;;;;6116872;23;19925;-61
2022/10/11 04:33:13;;;;;;;;;;;5.70;99.90;;;;;;6116753;23;19928;-61
2022/10/11 04:35:39;;;;;;;;;;;5.50;99.90;;;;;;6116888;23;20304;-60
2022/10/11 04:38:04;;;;;;;;;;;5.40;99.90;;;;;;6116184;23;19925;-61
2022/10/11 04:40:30;;;;;;;;;;;5.40;99.90;;;;;;6116444;23;20457;-61
2022/10/11 04:42:56;;;;;;;;;;;5.50;99.90;;;;;;6116822;23;19925;-61
2022/10/11 04:45:21;;;;;;;;;;;5.50;99.90;;;;;;6116666;23;20255;-61
2022/10/11 04:47:47;;;;;;;;;;;5.50;99.90;;;;;;6116833;23;19932;-61
2022/10/11 04:50:12;;;;;;;;;;;5.50;99.90;;;;;;6116699;23;19928;-64
2022/10/11 04:52:38;;;;;;;;;;;5.40;99.90;;;;;;6116692;23;19976;-64
2022/10/11 04:55:04;;;;;;;;;;;5.60;99.90;;;;;;6116280;23;19929;-62
2022/10/11 04:57:29;;;;;;;;;;;5.40;99.90;;;;;;6116264;23;19936;-62
2022/10/11 04:59:55;;;;;;;;;;;7.20;99.90;;;;;;6116739;23;19925;-62
2022/10/11 05:02:20;;;;;;;;;;;5.40;99.90;;;;;;6116580;23;19970;-61
2022/10/11 05:04:46;;;;;;;;;;;5.40;99.90;;;;;;6115490;23;19925;-62
2022/10/11 05:07:12;;;;;;;;;;;5.30;99.90;;;;;;6116475;23;19978;-62
2022/10/11 05:09:37;;;;;;;;;;;5.40;99.90;;;;;;6115733;23;19929;-62
2022/10/11 05:12:03;;;;;;;;;;;5.40;99.90;;;;;;6115707;23;20003;-62
2022/10/11 05:14:28;;;;;;;;;;;5.40;99.90;;;;;;6116172;23;19933;-62
2022/10/11 05:16:54;;;;;;;;;;;5.40;99.90;;;;;;6116310;23;19931;-64
2022/10/11 05:19:20;;;;;;;;;;;5.40;99.90;;;;;;6116400;23;19935;-61
2022/10/11 05:21:45;;;;;;;;;;;5.40;99.90;;;;;;6115524;23;20359;-61
2022/10/11 05:24:11;;;;;;;;;;;5.40;99.90;;;;;;6115706;23;19924;-61
2022/10/11 05:26:36;;;;;;;;;;;5.50;99.90;;;;;;6115972;23;19924;-61
2022/10/11 05:29:02;;;;;;;;;;;5.50;99.90;;;;;;6115983;23;19929;-61
2022/10/11 05:31:27;;;;;;;;;;;5.50;99.90;;;;;;6114185;23;19925;-61
2022/10/11 05:33:53;;;;;;;;;;;5.50;99.90;;;;;;6112942;23;19925;-61
2022/10/11 05:36:19;;;;;;;;;;;5.50;99.90;;;;;;6113027;23;20332;-61
2022/10/11 05:38:44;;;;;;;;;;;5.50;99.90;;;;;;6115055;23;19925;-61
2022/10/11 05:41:12;;;;;;;;;;;5.50;99.90;;;;;;6114650;23;19969;-60
2022/10/11 05:43:37;;;;;;;;;;;5.50;99.90;;;;;;6116285;23;19924;-61
2022/10/11 05:46:03;;;;;;;;;;;5.50;99.90;;;;;;6115858;23;19931;-61
2022/10/11 05:48:28;;;;;;;;;;;5.50;99.90;;;;;;6114853;23;20001;-60
2022/10/11 05:50:57;;;;;;;;;;;5.50;99.90;;;;;;6115105;23;19932;-61
2022/10/11 05:53:23;;;;;;;;;;;5.50;99.90;;;;;;6115183;23;20352;-61
2022/10/11 05:55:49;;;;;;;;;;;5.60;99.90;;;;;;6114988;23;19925;-61
2022/10/11 05:58:16;;;;;;;;;;;5.60;99.90;;;;;;6115674;23;20247;-61
2022/10/11 06:00:42;;;;;;;;;;;4.00;99.90;;;;;;6112524;23;19925;-61
2022/10/11 06:03:09;;;;;;;;;;;5.60;99.90;;;;;;6115907;23;19925;-61
2022/10/11 06:05:35;;;;;;;;;;;5.50;99.90;;;;;;6114815;23;19996;-65
2022/10/11 06:08:01;;;;;;;;;;;5.60;99.90;;;;;;6116804;23;19964;-62
2022/10/11 06:10:27;;;;;;;;;;;5.60;99.90;;;;;;6116120;23;19944;-62
2022/10/11 06:12:52;;;;;;;;;;;5.60;99.90;;;;;;6115979;23;20320;-65
2022/10/11 06:15:18;;;;;;;;;;;5.70;99.90;;;;;;6115488;23;19925;-64
2022/10/11 06:17:43;;;;;;;;;;;5.70;99.90;;;;;;6113527;23;19932;-65
2022/10/11 06:20:09;;;;;;;;;;;5.70;99.90;;;;;;6114741;23;19998;-63
2022/10/11 06:22:34;;;;;;;;;;;5.80;99.90;;;;;;6114950;23;19925;-65
2022/10/11 06:25:00;;;;;;;;;;;5.70;99.90;;;;;;6115463;23;20378;-65
2022/10/11 06:27:26;;;;;;;;;;;5.80;99.90;;;;;;6117672;23;20235;-65
2022/10/11 06:29:51;;;;;;;;;;;5.80;99.90;;;;;;6117455;23;19925;-63
2022/10/11 06:32:17;;;;;;;;;;;5.90;99.90;;;;;;6119024;23;19931;-61
2022/10/11 06:34:42;;;;;;;;;;;5.90;99.90;;;;;;6119445;23;20054;-64
2022/10/11 06:37:08;;;;;;;;;;;6.00;99.90;;;;;;6118949;23;20324;-64
2022/10/11 06:39:33;;;;;;;;;;;6.10;99.90;;;;;;6118528;23;20344;-65
2022/10/11 06:41:59;;;;;;;;;;;6.10;99.90;;;;;;6120232;23;19921;-65
2022/10/11 06:44:25;;;;;;;;;;;6.20;99.90;;;;;;6119970;23;19921;-65
2022/10/11 06:46:51;;;;;;;;;;;6.20;99.90;;;;;;6120361;23;19921;-65
2022/10/11 06:49:16;;;;;;;;;;;6.30;99.90;;;;;;6119657;23;20121;-63
2022/10/11 06:51:42;;;;;;;;;;;6.40;99.90;;;;;;6120352;23;19964;-62
2022/10/11 06:54:07;;;;;;;;;;;6.50;99.90;;;;;;6121015;23;19992;-65
2022/10/11 06:56:33;;;;;;;;;;;6.60;99.90;;;;;;6121270;23;20278;-62
2022/10/11 06:58:59;;;;;;;;;;;6.70;99.90;;;;;;6121034;23;19928;-65
2022/10/11 07:01:25;;;;;;;;;;;6.80;99.90;;;;;;6118699;23;20012;-63
2022/10/11 07:03:51;;;;;;;;;;;6.90;99.90;;;;;;6118241;23;19921;-64
2022/10/11 07:06:19;;;;;;;;;;;6.90;99.90;;;;;;6119808;23;19967;-62
2022/10/11 07:08:45;;;;;;;;;;;7.00;99.90;;;;;;6120782;23;19921;-62
2022/10/11 07:11:12;;;;;;;;;;;7.10;99.90;;;;;;6121217;23;19978;-63
2022/10/11 07:13:38;;;;;;;;;;;7.20;99.90;;;;;;6120451;23;20336;-62
2022/10/11 07:16:05;;;;;;;;;;;7.20;99.90;;;;;;6120367;23;19932;-62
2022/10/11 07:18:30;;;;;;;;;;;7.30;99.90;;;;;;6120621;23;19962;-62
2022/10/11 07:20:56;;;;;;;;;;;7.40;99.90;;;;;;6121177;23;19921;-62
2022/10/11 07:23:22;;;;;;;;;;;7.40;99.90;;;;;;6120889;23;20284;-62
2022/10/11 07:25:48;;;;;;;;;;;7.50;99.90;;;;;;6121094;23;19925;-61
2022/10/11 07:28:14;;;;;;;;;;;7.60;99.90;;;;;;6120931;23;19928;-63
2022/10/11 07:30:41;;;;;;;;;;;7.70;99.90;;;;;;6120686;23;19929;-63
2022/10/11 07:33:06;;;;;;;;;;;7.80;99.90;;;;;;6120271;23;20332;-63
2022/10/11 07:35:35;;;;;;;;;;;7.90;99.90;;;;;;6120651;23;19928;-63
2022/10/11 07:38:01;;;;;;;;;;;7.90;99.90;;;;;;6120416;23;19921;-62
2022/10/11 07:40:27;;;;;;;;;;;8.10;99.90;;;;;;6118708;23;19974;-64
2022/10/11 07:42:52;;;;;;;;;;;8.60;99.90;;;;;;6120851;23;19921;-62
2022/10/11 07:45:18;;;;;;;;;;;8.30;99.90;;;;;;6120760;23;19928;-62
2022/10/11 07:47:45;;;;;;;;;;;8.30;99.90;;;;;;6118775;23;19921;-62
2022/10/11 07:50:11;;;;;;;;;;;8.40;99.90;;;;;;6120589;23;19984;-62
2022/10/11 07:52:37;;;;;;;;;;;8.50;99.90;;;;;;6120794;23;19947;-62
2022/10/11 07:55:02;;;;;;;;;;;8.70;99.90;;;;;;6119387;23;19925;-62
2022/10/11 07:57:28;;;;;;;;;;;8.70;99.90;;;;;;6119457;23;19928;-62
2022/10/11 07:59:53;;;;;;;;;;;8.80;99.90;;;;;;6120275;23;19921;-62
2022/10/11 08:02:19;;;;;;;;;;;8.90;99.90;;;;;;6119476;23;19936;-62
2022/10/11 08:04:44;;;;;;;;;;;8.90;99.90;;;;;;6120074;23;19921;-61
2022/10/11 08:07:10;;;;;;;;;;;9.00;99.90;;;;;;6120135;23;19921;-61
2022/10/11 08:09:36;;;;;;;;;;;9.20;99.90;;;;;;6120726;23;19928;-64
2022/10/11 08:12:01;;;;;;;;;;;9.30;99.90;;;;;;6120064;23;20391;-66
2022/10/11 08:14:27;;;;;;;;;;;9.40;99.90;;;;;;6119759;23;19931;-64
2022/10/11 08:16:52;;;;;;;;;;;9.50;99.90;;;;;;6118547;23;19963;-65
2022/10/11 08:19:18;;;;;;;;;;;9.60;99.90;;;;;;6119331;23;19927;-65
2022/10/11 08:21:43;;;;;;;;;;;9.60;99.90;;;;;;6119171;23;20283;-65
2022/10/11 08:24:09;;;;;;;;;;;9.80;99.90;;;;;;6119037;23;19921;-62
2022/10/11 08:26:35;;;;;;;;;;;9.80;99.90;;;;;;6119524;23;19960;-65
2022/10/11 08:29:04;;;;;;;;;;;9.90;99.90;;;;;;6118740;23;19932;-64
2022/10/11 08:31:30;;;;;;;;;;;10.00;99.90;;;;;;6120195;23;19925;-64
2022/10/11 08:33:55;;;;;;;;;;;10.30;99.90;;;;;;6120089;23;19928;-65
2022/10/11 08:36:21;;;;;;;;;;;10.30;99.90;;;;;;6120118;23;20342;-65
2022/10/11 08:38:47;;;;;;;;;;;10.60;99.90;;;;;;6120420;23;19955;-64
2022/10/11 08:41:24;;;;;;;;;;;12.00;99.90;;;;;;6120288;23;19921;-65
2022/10/11 08:43:53;;;;;;;;;;;10.70;99.90;;;;;;6120762;23;19994;-65
2022/10/11 08:46:22;;;;;;;;;;;10.90;99.90;;;;;;6116003;23;19921;-66
2022/10/11 08:48:48;;;;;;;;;;;11.10;99.90;;;;;;6119787;23;20240;-66
2022/10/11 08:51:18;;;;;;;;;;;11.20;99.90;;;;;;6119865;23;19982;-65
2022/10/11 08:53:46;;;;;;;;;;;11.80;99.90;;;;;;6119548;23;19925;-65
2022/10/11 08:56:13;;;;;;;;;;;11.70;99.90;;;;;;6119350;23;19928;-65
2022/10/11 08:58:39;;;;;;;;;;;12.00;99.90;;;;;;6118852;23;20394;-65
2022/10/11 09:01:08;;;;;;;;;;;12.30;99.90;;;;;;6119657;23;19929;-66
2022/10/11 09:03:38;;;;;;;;;;;12.60;99.90;;;;;;6120081;23;19925;-65
2022/10/11 09:06:15;;;;;;;;;;;13.10;99.90;;;;;;6119597;23;20288;-63
2022/10/11 09:08:59;;;;;;;;;;;13.20;99.90;;;;;;6119315;23;20020;-63
2022/10/11 09:11:45;;;;;;;;;;;13.50;99.90;;;;;;6118759;23;20395;-63
2022/10/11 09:14:11;;;;;;;;;;;14.00;99.90;;;;;;6119930;23;20300;-62
2022/10/11 09:16:56;;;;;;;;;;;14.30;99.90;;;;;;6118520;23;19960;-62
2022/10/11 09:19:21;;;;;;;;;;;14.60;99.90;;;;;;6116805;23;19925;-63
2022/10/11 09:22:05;;;;;;;;;;;15.00;99.90;;;;;;6118053;23;19967;-62
2022/10/11 09:24:44;;;;;;;;;;;15.10;99.90;;;;;;6117923;23;19971;-62
2022/10/11 09:27:10;;;;;;;;;;;15.80;99.90;;;;;;6118040;23;20168;-62
2022/10/11 09:29:49;;;;;;;;;;;15.80;99.90;;;;;;6118561;23;20392;-62
2022/10/11 09:32:16;;;;;;;;;;;16.00;99.90;;;;;;6117956;23;19928;-62
2022/10/11 09:34:42;;;;;;;;;;;16.00;99.90;;;;;;6118235;23;19932;-62
2022/10/11 09:37:16;;;;;;;;;;;16.40;99.90;;;;;;6119051;23;19921;-62
2022/10/11 09:39:46;;;;;;;;;;;16.60;99.90;;;;;;6118306;23;20330;-65
2022/10/11 09:42:12;;;;;;;;;;;16.90;99.90;;;;;;6120282;23;19999;-62
2022/10/11 09:44:40;;;;;;;;;;;17.40;99.90;;;;;;6119589;23;19952;-62
2022/10/11 09:47:09;;;;;;;;;;;17.60;99.90;;;;;;6120028;23;19924;-62
2022/10/11 09:49:41;;;;;;;;;;;17.50;99.90;;;;;;6120190;23;19983;-62
2022/10/11 09:52:17;;;;;;;;;;;17.30;99.90;;;;;;6120472;23;19921;-63
2022/10/11 09:54:44;;;;;;;;;;;17.40;99.90;;;;;;6119094;23;19925;-65
2022/10/11 09:57:27;;;;;;;;;;;17.30;99.90;;;;;;6119719;23;19921;-68
2022/10/11 10:00:16;;;;;;;;;;;17.80;99.90;;;;;;6120127;23;20319;-64
2022/10/11 10:02:49;;;;;;;;;;;17.70;99.90;;;;;;6123678;23;19925;-63
2022/10/11 10:05:17;;;;;;;;;;;17.80;99.90;;;;;;6120418;23;19948;-64
2022/10/11 10:07:57;;;;;;;;;;;17.80;99.90;;;;;;6119899;23;20294;-68
2022/10/11 10:10:33;;;;;;;;;;;18.10;99.90;;;;;;6119825;23;19928;-63
2022/10/11 10:12:59;;;;;;;;;;;17.80;99.90;;;;;;6119972;23;20347;-63
2022/10/11 10:15:28;;;;;;;;;;;18.10;99.90;;;;;;6120686;23;19943;-66
2022/10/11 10:17:54;;;;;;;;;;;17.80;99.90;;;;;;6121444;23;19925;-64
2022/10/11 10:20:24;;;;;;;;;;;17.50;99.90;;;;;;6120510;23;20450;-63
2022/10/11 10:22:50;;;;;;;;;;;17.60;99.90;;;;;;6119226;23;19925;-68
2022/10/11 10:25:21;;;;;;;;;;;17.50;99.90;;;;;;6119674;23;20415;-65
2022/10/11 10:28:00;;;;;;;;;;;17.50;99.90;;;;;;6120459;23;19928;-64
2022/10/11 10:30:26;;;;;;;;;;;17.20;99.90;;;;;;6120399;23;19948;-64
2022/10/11 10:32:52;;;;;;;;;;;17.20;99.90;;;;;;6120428;23;19921;-63
2022/10/11 10:35:29;;;;;;;;;;;17.20;99.90;;;;;;6119782;23;20027;-64
2022/10/11 10:38:07;;;;;;;;;;;17.50;99.90;;;;;;6121168;23;20240;-65
2022/10/11 10:40:38;;;;;;;;;;;17.60;99.90;;;;;;6119598;23;19928;-63
2022/10/11 10:43:04;;;;;;;;;;;17.50;99.90;;;;;;6120632;23;19921;-65
2022/10/11 10:45:36;;;;;;;;;;;17.80;99.90;;;;;;6120876;23;19987;-69
2022/10/11 10:48:21;;;;;;;;;;;17.30;99.90;;;;;;6120830;23;19925;-66
2022/10/11 10:50:51;;;;;;;;;;;17.50;99.90;;;;;;6120975;23;20136;-62
2022/10/11 10:53:22;;;;;;;;;;;17.70;99.90;;;;;;6121289;23;19921;-68
2022/10/11 10:55:54;;;;;;;;;;;17.50;99.90;;;;;;6121042;23;19971;-65
2022/10/11 10:58:29;;;;;;;;;;;17.50;99.90;;;;;;6121169;23;19992;-63
2022/10/11 11:01:13;;;;;;;;;;;17.20;99.90;;;;;;6120708;23;19921;-63
2022/10/11 11:03:45;;;;;;;;;;;17.10;99.90;;;;;;6121286;23;19921;-63
2022/10/11 11:06:16;;;;;;;;;;;17.20;99.90;;;;;;6119939;23;19929;-65
2022/10/11 11:09:01;;;;;;;;;;;17.70;99.90;;;;;;6120403;23;19925;-65
2022/10/11 11:11:41;;;;;;;;;;;17.90;99.90;;;;;;6120601;23;19931;-64
2022/10/11 11:14:13;;;;;;;;;;;18.40;99.90;;;;;;6120802;23;19925;-65
2022/10/11 11:16:57;;;;;;;;;;;18.50;99.90;;;;;;6121120;23;19925;-64
2022/10/11 11:19:41;;;;;;;;;;;18.70;99.90;;;;;;6121077;23;20229;-65
2022/10/11 11:22:27;;;;;;;;;;;18.90;99.90;;;;;;6121087;23;19921;-65
2022/10/11 11:24:58;;;;;;;;;;;18.90;99.90;;;;;;6120389;23;19970;-65
2022/10/11 11:27:39;;;;;;;;;;;19.20;99.90;;;;;;6120376;23;19932;-65
2022/10/11 11:30:07;;;;;;;;;;;19.40;99.90;;;;;;6118890;23;19960;-64
2022/10/11 11:32:48;;;;;;;;;;;18.90;99.90;;;;;;6120072;23;20255;-66
2022/10/11 11:35:20;;;;;;;;;;;19.20;99.90;;;;;;6120171;23;19921;-65
2022/10/11 11:37:46;;;;;;;;;;;19.70;99.90;;;;;;6119965;23;19999;-67
2022/10/11 11:40:16;;;;;;;;;;;20.00;99.90;;;;;;6118281;23;19960;-66
2022/10/11 11:42:50;;;;;;;;;;;20.20;99.90;;;;;;6119084;23;19925;-65
2022/10/11 11:45:23;;;;;;;;;;;20.80;99.90;;;;;;6119119;23;19925;-66
2022/10/11 11:47:53;;;;;;;;;;;21.00;99.90;;;;;;6119580;23;19921;-64
2022/10/11 11:50:23;;;;;;;;;;;19.90;99.90;;;;;;6118832;23;19920;-64
2022/10/11 11:52:59;;;;;;;;;;;19.90;99.90;;;;;;6119584;23;19925;-63
2022/10/11 11:55:26;;;;;;;;;;;19.60;99.90;;;;;;6118688;23;20391;-63
2022/10/11 11:58:21;;;;;;;;;;;19.40;99.90;;;;;;6119483;23;19925;-63
2022/10/11 12:00:47;;;;;;;;;;;19.00;99.90;;;;;;6118181;23;19943;-66
2022/10/11 12:03:23;;;;;;;;;;;18.50;99.90;;;;;;6118498;23;19925;-63
2022/10/11 12:06:07;;;;;;;;;;;18.20;99.90;;;;;;6118545;23;19925;-63
2022/10/11 12:08:34;;;;;;;;;;;17.80;99.90;;;;;;6119205;23;19992;-66
2022/10/11 12:11:00;;;;;;;;;;;17.50;99.90;;;;;;6119407;23;19967;-64
2022/10/11 12:13:33;;;;;;;;;;;17.60;99.90;;;;;;6119712;23;19921;-65
2022/10/11 12:16:04;;;;;;;;;;;17.70;99.90;;;;;;6118409;23;19921;-64
2022/10/11 12:18:31;;;;;;;;;;;17.50;99.90;;;;;;6119864;23;19974;-65
2022/10/11 12:21:07;;;;;;;;;;;17.80;99.90;;;;;;6116893;23;19928;-63
2022/10/11 12:23:37;;;;;;;;;;;17.90;99.90;;;;;;6117080;23;20340;-64
2022/10/11 12:26:21;;;;;;;;;;;17.70;99.90;;;;;;6116746;23;19925;-67
2022/10/11 12:28:56;;;;;;;;;;;17.30;99.90;;;;;;6120262;23;20259;-64
2022/10/11 12:31:23;;;;;;;;;;;17.20;99.90;;;;;;6120628;23;19932;-64
2022/10/11 12:33:51;;;;;;;;;;;16.80;99.90;;;;;;6119952;23;19974;-64
2022/10/11 12:36:35;;;;;;;;;;;16.60;99.90;;;;;;6118096;23;20291;-63
2022/10/11 12:39:33;;;;;;;;;;;16.40;99.90;;;;;;6119807;23;20243;-63
2022/10/11 12:42:06;;;;;;;;;;;16.20;99.90;;;;;;6120354;23;20103;-68
2022/10/11 12:44:32;;;;;;;;;;;16.10;99.90;;;;;;6120498;23;19975;-64
2022/10/11 12:47:12;;;;;;;;;;;16.10;99.90;;;;;;6120424;23;19921;-63
2022/10/11 12:49:46;;;;;;;;;;;16.10;99.90;;;;;;6120944;23;19921;-66
2022/10/11 12:52:27;;;;;;;;;;;16.20;99.90;;;;;;6120574;23;19924;-63
2022/10/11 12:54:55;;;;;;;;;;;16.30;99.90;;;;;;6120752;23;19984;-63
2022/10/11 12:57:30;;;;;;;;;;;16.30;99.90;;;;;;6119014;23;19947;-65
2022/10/11 13:00:06;;;;;;;;;;;16.60;99.90;;;;;;6120346;23;19928;-64
2022/10/11 13:02:39;;;;;;;;;;;16.70;99.90;;;;;;6118548;23;20294;-62
2022/10/11 13:05:06;;;;;;;;;;;16.90;99.90;;;;;;6118658;23;19996;-63
2022/10/11 13:07:33;;;;;;;;;;;17.10;99.90;;;;;;6119200;23;19925;-64
2022/10/11 13:09:59;;;;;;;;;;;17.50;99.90;;;;;;6117035;23;20343;-64
2022/10/11 13:12:25;;;;;;;;;;;17.50;99.90;;;;;;6118247;23;20249;-64
2022/10/11 13:15:06;;;;;;;;;;;17.50;99.90;;;;;;6117476;23;19928;-63
2022/10/11 13:17:33;;;;;;;;;;;17.40;99.90;;;;;;6118576;23;19928;-67
2022/10/11 13:20:00;;;;;;;;;;;17.20;99.90;;;;;;6117338;23;19940;-66
2022/10/11 13:22:26;;;;;;;;;;;17.20;99.90;;;;;;6117528;23;20383;-64
2022/10/11 13:24:54;;;;;;;;;;;17.10;99.90;;;;;;6119239;23;19964;-67
2022/10/11 13:27:21;;;;;;;;;;;16.70;99.90;;;;;;6120096;23;19921;-68
2022/10/11 13:29:48;;;;;;;;;;;16.30;99.90;;;;;;6120069;23;20255;-66
2022/10/11 13:32:19;;;;;;;;;;;16.20;99.90;;;;;;6120174;23;19920;-67
2022/10/11 13:34:47;;;;;;;;;;;16.20;99.90;;;;;;6119122;23;19924;-67
2022/10/11 13:37:20;;;;;;;;;;;16.70;99.90;;;;;;6119842;23;19957;-67
2022/10/11 13:39:47;;;;;;;;;;;17.10;99.90;;;;;;6118017;23;20434;-67
2022/10/11 13:42:14;;;;;;;;;;;16.80;99.90;;;;;;6117924;23;19921;-67
2022/10/11 13:44:40;;;;;;;;;;;16.50;99.90;;;;;;6117768;23;20271;-67
2022/10/11 13:47:10;;;;;;;;;;;16.40;99.90;;;;;;6117160;23;19994;-62
2022/10/11 13:49:36;;;;;;;;;;;17.20;99.90;;;;;;6117803;23;19971;-63
2022/10/11 13:52:05;;;;;;;;;;;17.40;99.90;;;;;;6118706;23;19921;-62
2022/10/11 13:54:52;;;;;;;;;;;16.60;99.90;;;;;;6116003;23;19939;-63
2022/10/11 13:57:18;;;;;;;;;;;16.30;99.90;;;;;;6117702;23;20256;-63
2022/10/11 13:59:44;;;;;;;;;;;16.40;99.90;;;;;;6117826;23;19924;-66
2022/10/11 14:02:17;;;;;;;;;;;16.40;99.90;;;;;;6116209;23;19921;-65
2022/10/11 14:04:42;;;;;;;;;;;16.10;99.90;;;;;;6112745;23;20393;-63
2022/10/11 14:07:20;;;;;;;;;;;15.90;99.90;;;;;;6114159;23;20320;-65
2022/10/11 14:09:47;;;;;;;;;;;15.80;99.90;;;;;;6113361;23;20126;-64
2022/10/11 14:12:24;;;;;;;;;;;15.80;99.90;;;;;;6113739;23;20116;-64
2022/10/11 14:14:49;;;;;;;;;;;15.90;99.90;;;;;;6114281;23;20003;-65
2022/10/11 14:17:17;;;;;;;;;;;15.90;99.90;;;;;;6113979;23;19971;-65
2022/10/11 14:19:43;;;;;;;;;;;16.00;99.90;;;;;;6112035;23;19929;-63
2022/10/11 14:22:14;;;;;;;;;;;16.10;99.90;;;;;;6109352;23;20258;-62
2022/10/11 14:24:39;;;;;;;;;;;16.10;99.90;;;;;;6112535;23;20348;-63
2022/10/11 14:27:07;;;;;;;;;;;16.00;99.90;;;;;;6113841;23;19983;-62
2022/10/11 14:29:34;;;;;;;;;;;16.10;99.90;;;;;;6116212;23;20267;-62
2022/10/11 14:32:28;;;;;;;;;;;16.10;99.90;;;;;;6116225;23;19957;-61
2022/10/11 14:34:54;;;;;;;;;;;16.00;99.90;;;;;;6116769;23;20299;-62